Kongen — LCDE — position and weather

sailwx.info

Track history (hours):
 
Tides and Currents Weather Stations Pressure Air Temp Water Temp Dewpoint Dewpoint Depression Visibility Wind Speed Wind Dir Waves Ship Positions

Kongen

Last reported at 2016-Dec-08 19:32 UTC. Time now 2016-Dec-08 20:17 UTC.
Position N 59°52' E 010°39'.

Length 50 m; draft 3.2 m.

Type: Passenger vessel. MMSI: 258509000.

Date/timePositionNaut miles runAvg speedWind from/ knotsBaromVisibWave heightAir tempDewpointWater temp
2016-Dec-08 19:32N 59°52' E 010°39'0 0.0
2016-Dec-08 18:32N 59°52' E 010°39'0 0.0
2016-Dec-08 17:32N 59°52' E 010°39'0 0.2
2016-Dec-08 16:33N 59°52' E 010°40'0 0.1
2016-Dec-08 15:33N 59°52' E 010°40'0 0.1
2016-Dec-08 14:33N 59°52' E 010°40'1 0.4
2016-Dec-08 11:10N 59°54' E 010°41'0 0.5
2016-Dec-08 10:08N 59°53' E 010°41'0 0.5
2016-Dec-08 09:11N 59°54' E 010°41'1 0.6
2016-Dec-08 07:25N 59°53' E 010°40'1 1.3
2016-Dec-08 06:31N 59°54' E 010°41'0 0.0
2016-Dec-07 18:12N 59°54' E 010°42'0 0.2
2016-Dec-07 17:14N 59°54' E 010°42'0 0.4
2016-Dec-07 16:12N 59°54' E 010°41'0 0.3
2016-Dec-07 15:13N 59°54' E 010°42'0 0.1
2016-Dec-07 14:13N 59°54' E 010°42'0 0.4
2016-Dec-07 13:11N 59°53' E 010°41'0 0.1
2016-Dec-07 12:11N 59°54' E 010°41'0 0.1
2016-Dec-07 08:08N 59°53' E 010°41'0 0.2
2016-Dec-07 07:09N 59°53' E 010°41'0 0.3
2016-Dec-07 06:10N 59°54' E 010°41'0 0.1
2016-Dec-07 05:10N 59°53' E 010°41'1 2.3
2016-Dec-07 04:31N 59°52' E 010°39'0 0.0
2016-Dec-07 03:31N 59°52' E 010°39'0 0.0
2016-Dec-07 02:28N 59°52' E 010°39'0 0.0
2016-Dec-07 01:31N 59°52' E 010°39'0 0.0
2016-Dec-07 00:28N 59°52' E 010°39'0 0.0
2016-Dec-06 23:31N 59°52' E 010°39'0 0.0
2016-Dec-06 22:31N 59°52' E 010°39'0 0.0
2016-Dec-06 21:28N 59°52' E 010°39'0 0.0
2016-Dec-06 20:31N 59°52' E 010°39'0 0.0
2016-Dec-06 18:31N 59°52' E 010°39'0 0.0
2016-Dec-06 17:28N 59°52' E 010°39'0 0.2
2016-Dec-06 16:33N 59°52' E 010°40'0 0.1
2016-Dec-06 15:33N 59°52' E 010°40'0 0.1
2016-Dec-06 14:33N 59°52' E 010°40'1 0.3
2016-Dec-06 11:08N 59°53' E 010°41'0 0.2
2016-Dec-06 10:07N 59°53' E 010°41'0 0.2
2016-Dec-06 09:08N 59°53' E 010°41'0 0.2
2016-Dec-06 07:26N 59°53' E 010°40'0 0.2
2016-Dec-06 06:28N 59°53' E 010°41'1 0.1
2016-Dec-05 18:12N 59°54' E 010°42'0 0.2
2016-Dec-05 17:11N 59°54' E 010°41'0 0.0
2016-Dec-05 16:11N 59°54' E 010°41'0 0.5
2016-Dec-05 15:08N 59°53' E 010°41'0 0.5
2016-Dec-05 14:10N 59°54' E 010°41'0 0.1
2016-Dec-05 13:11N 59°54' E 010°41'0 0.4
2016-Dec-05 12:08N 59°53' E 010°41'0 0.1
2016-Dec-05 08:11N 59°54' E 010°42'0 0.2
2016-Dec-05 07:11N 59°54' E 010°41'0 0.2
2016-Dec-05 06:10N 59°53' E 010°41'0 0.4
2016-Dec-05 05:12N 59°54' E 010°42'2 2.7
2016-Dec-05 04:33N 59°52' E 010°39'0 0.0
2016-Dec-05 03:33N 59°52' E 010°39'0 0.0
2016-Dec-05 02:33N 59°52' E 010°39'0 0.0
2016-Dec-05 01:33N 59°52' E 010°39'0 0.0
2016-Dec-05 00:33N 59°52' E 010°39'1 1.0
2016-Dec-04 23:09N 59°53' E 010°41'0 0.1
2016-Dec-04 22:09N 59°53' E 010°41'0 0.0
2016-Dec-04 21:09N 59°53' E 010°41'0 0.1
2016-Dec-04 20:09N 59°53' E 010°41'0 0.5
2016-Dec-04 19:12N 59°54' E 010°41'0 0.4
2016-Dec-04 18:09N 59°53' E 010°41'2 2.1
2016-Dec-04 17:19N 59°54' E 010°44'1 1.2
2016-Dec-04 16:12N 59°54' E 010°41'0 0.0
2016-Dec-04 03:14N 59°53' E 010°41'0 0.3
2016-Dec-04 02:11N 59°54' E 010°41'1 0.5
2016-Dec-04 01:07N 59°53' E 010°40'0 0.3
2016-Dec-04 00:09N 59°53' E 010°41'0 0.3
2016-Dec-03 23:10N 59°54' E 010°41'0 0.2
2016-Dec-03 22:09N 59°53' E 010°41'0 0.2
2016-Dec-03 21:11N 59°54' E 010°41'0 0.1
2016-Dec-03 20:11N 59°54' E 010°41'1 0.9
2016-Dec-03 19:05N 59°53' E 010°40'2 2.8
2016-Dec-03 18:19N 59°54' E 010°44'1 1.2
2016-Dec-03 17:12N 59°54' E 010°41'2 0.1
2016-Dec-03 04:32N 59°55' E 010°44'2 2.1
2016-Dec-03 03:32N 59°53' E 010°41'2 2.1
2016-Dec-03 02:33N 59°55' E 010°44'0 0.0
2016-Dec-03 01:33N 59°55' E 010°44'0 0.0
2016-Dec-03 00:32N 59°55' E 010°44'0 0.0
2016-Dec-02 23:31N 59°55' E 010°44'0 0.0
2016-Dec-02 22:33N 59°55' E 010°44'0 0.2
2016-Dec-02 21:32N 59°54' E 010°44'0 0.2
2016-Dec-02 20:28N 59°55' E 010°44'2 2.2
2016-Dec-02 19:33N 59°53' E 010°41'1 0.6
2016-Dec-02 18:33N 59°53' E 010°40'0 0.3
2016-Dec-02 17:33N 59°53' E 010°40'0 0.0
2016-Dec-02 16:33N 59°53' E 010°40'1 1.3
2016-Dec-02 15:31N 59°54' E 010°41'2 1.7
2016-Dec-02 14:32N 59°52' E 010°39'3 3.2
2016-Dec-02 13:33N 59°55' E 010°44'2 2.0
2016-Dec-02 12:33N 59°53' E 010°41'2 1.9
2016-Dec-02 11:30N 59°55' E 010°44'0 0.0
2016-Dec-02 10:33N 59°55' E 010°44'2 1.7
2016-Dec-02 09:33N 59°54' E 010°41'2 1.5
2016-Dec-02 08:32N 59°52' E 010°39'0 0.1
2016-Dec-02 07:33N 59°52' E 010°40'0 0.1
2016-Dec-02 06:33N 59°52' E 010°40'0 0.2
2016-Dec-02 05:33N 59°53' E 010°40'0 0.0
2016-Dec-02 04:33N 59°53' E 010°40'2 2.3
2016-Dec-02 03:32N 59°54' E 010°43'3 1.3
2016-Dec-02 01:33N 59°52' E 010°39'0 0.0
2016-Dec-02 00:33N 59°52' E 010°39'0 0.0
2016-Dec-01 23:30N 59°52' E 010°39'0 0.0
2016-Dec-01 22:33N 59°52' E 010°39'0 0.0
2016-Dec-01 21:18N 59°52' E 010°39'0 0.0
2016-Dec-01 20:33N 59°52' E 010°39'0 0.0
2016-Dec-01 19:33N 59°52' E 010°39'0 0.0
2016-Dec-01 18:33N 59°52' E 010°39'0 0.4
2016-Dec-01 17:33N 59°53' E 010°40'0 0.1
2016-Dec-01 16:33N 59°53' E 010°40'0 0.3
2016-Dec-01 15:32N 59°52' E 010°39'0 0.0
2016-Dec-01 14:32N 59°52' E 010°39'0 0.0
2016-Dec-01 13:33N 59°52' E 010°39'0 0.0
2016-Dec-01 12:30N 59°52' E 010°39'0 0.0
2016-Dec-01 11:31N 59°52' E 010°39'0 0.0
2016-Dec-01 10:33N 59°52' E 010°39'0 0.0
2016-Dec-01 09:32N 59°52' E 010°39'0 0.0
2016-Dec-01 08:33N 59°52' E 010°39'0 0.1
2016-Dec-01 07:33N 59°52' E 010°40'0 0.0
2016-Dec-01 06:33N 59°52' E 010°40'0 0.2
2016-Dec-01 05:33N 59°53' E 010°40'0 0.0
2016-Dec-01 04:33N 59°53' E 010°40'0 0.0
2016-Dec-01 03:33N 59°53' E 010°40'2 1.6
2016-Dec-01 02:33N 59°54' E 010°42'1 1.2
2016-Dec-01 01:33N 59°54' E 010°44'0 0.2
2016-Dec-01 00:33N 59°55' E 010°44'0 0.0
2016-Nov-30 23:33N 59°55' E 010°44'0 0.0
2016-Nov-30 22:32N 59°55' E 010°44'0 0.0
2016-Nov-30 21:32N 59°55' E 010°44'0 0.0
2016-Nov-30 20:30N 59°55' E 010°44'3 1.6
2016-Nov-30 18:32N 59°52' E 010°39'0 0.4
2016-Nov-30 17:33N 59°53' E 010°40'0 0.1
2016-Nov-30 16:34N 59°53' E 010°40'1 1.1
2016-Nov-30 15:30N 59°54' E 010°41'2 1.6
2016-Nov-30 14:33N 59°52' E 010°39'3 3.2
2016-Nov-30 13:33N 59°55' E 010°44'0 0.0
2016-Nov-30 12:33N 59°55' E 010°44'3 3.0
2016-Nov-30 11:32N 59°52' E 010°40'3 3.1
2016-Nov-30 10:33N 59°55' E 010°44'3 2.7
2016-Nov-30 09:33N 59°53' E 010°40'3 2.7
2016-Nov-30 08:33N 59°55' E 010°44'3 3.1
2016-Nov-30 07:33N 59°52' E 010°40'0 0.0
2016-Nov-30 06:33N 59°52' E 010°40'0 0.2
2016-Nov-30 05:34N 59°53' E 010°40'0 0.0
2016-Nov-30 04:33N 59°53' E 010°40'3 2.8
2016-Nov-30 03:31N 59°55' E 010°44'0 0.0
2016-Nov-30 02:33N 59°55' E 010°44'0 0.0
2016-Nov-30 01:23N 59°55' E 010°44'0 0.0
2016-Nov-30 00:32N 59°55' E 010°44'0 0.0
2016-Nov-29 23:32N 59°55' E 010°44'0 0.0
2016-Nov-29 22:31N 59°55' E 010°44'0 0.0
2016-Nov-29 21:33N 59°55' E 010°44'0 0.0
2016-Nov-29 20:33N 59°55' E 010°44'0 0.0
2016-Nov-29 19:32N 59°55' E 010°44'3 3.2
2016-Nov-29 18:32N 59°52' E 010°39'0 0.4
2016-Nov-29 17:33N 59°53' E 010°40'0 0.1
2016-Nov-29 16:33N 59°53' E 010°40'1 1.1
2016-Nov-29 15:31N 59°54' E 010°41'2 1.8
2016-Nov-29 14:33N 59°55' E 010°44'0 0.0
2016-Nov-29 13:33N 59°55' E 010°44'0 0.0
2016-Nov-29 12:33N 59°55' E 010°44'0 0.0
2016-Nov-29 11:33N 59°55' E 010°44'0 0.0
2016-Nov-29 10:33N 59°55' E 010°44'0 0.0
2016-Nov-29 09:33N 59°55' E 010°44'0 0.0
2016-Nov-29 08:31N 59°55' E 010°44'3 3.3
2016-Nov-29 07:33N 59°52' E 010°40'0 0.0
2016-Nov-29 06:33N 59°52' E 010°40'0 0.3
2016-Nov-29 05:33N 59°53' E 010°40'0 0.0
2016-Nov-29 04:33N 59°53' E 010°40'3 2.7
2016-Nov-29 03:30N 59°55' E 010°44'0 0.0
2016-Nov-29 02:30N 59°55' E 010°44'0 0.0
2016-Nov-29 01:31N 59°55' E 010°44'0 0.0
2016-Nov-29 00:33N 59°55' E 010°44'0 0.0
2016-Nov-28 23:33N 59°55' E 010°44'0 0.0
2016-Nov-28 22:33N 59°55' E 010°44'0 0.0
2016-Nov-28 21:32N 59°55' E 010°44'0 0.0
2016-Nov-28 20:33N 59°55' E 010°44'  
Track history (hours):
 
Tides and Currents Weather Stations Pressure Air Temp Water Temp Dewpoint Dewpoint Depression Visibility Wind Speed Wind Dir Waves Ship Positions

Kongen

Last reported at 2016-Dec-08 19:32 UTC. Time now 2016-Dec-08 20:17 UTC.
Position N 59°52' E 010°39'.

Length 50 m; draft 3.2 m.

Type: Passenger vessel. MMSI: 258509000.

Date/timePositionNaut miles runAvg speedWind from/ knotsBaromVisibWave heightAir tempDewpointWater temp
2016-Dec-08 19:32N 59°52' E 010°39'0 0.0
2016-Dec-08 18:32N 59°52' E 010°39'0 0.0
2016-Dec-08 17:32N 59°52' E 010°39'0 0.2
2016-Dec-08 16:33N 59°52' E 010°40'0 0.1
2016-Dec-08 15:33N 59°52' E 010°40'0 0.1
2016-Dec-08 14:33N 59°52' E 010°40'1 0.4
2016-Dec-08 11:10N 59°54' E 010°41'0 0.5
2016-Dec-08 10:08N 59°53' E 010°41'0 0.5
2016-Dec-08 09:11N 59°54' E 010°41'1 0.6
2016-Dec-08 07:25N 59°53' E 010°40'1 1.3
2016-Dec-08 06:31N 59°54' E 010°41'0 0.0
2016-Dec-07 18:12N 59°54' E 010°42'0 0.2
2016-Dec-07 17:14N 59°54' E 010°42'0 0.4
2016-Dec-07 16:12N 59°54' E 010°41'0 0.3
2016-Dec-07 15:13N 59°54' E 010°42'0 0.1
2016-Dec-07 14:13N 59°54' E 010°42'0 0.4
2016-Dec-07 13:11N 59°53' E 010°41'0 0.1
2016-Dec-07 12:11N 59°54' E 010°41'0 0.1
2016-Dec-07 08:08N 59°53' E 010°41'0 0.2
2016-Dec-07 07:09N 59°53' E 010°41'0 0.3
2016-Dec-07 06:10N 59°54' E 010°41'0 0.1
2016-Dec-07 05:10N 59°53' E 010°41'1 2.3
2016-Dec-07 04:31N 59°52' E 010°39'0 0.0
2016-Dec-07 03:31N 59°52' E 010°39'0 0.0
2016-Dec-07 02:28N 59°52' E 010°39'0 0.0
2016-Dec-07 01:31N 59°52' E 010°39'0 0.0
2016-Dec-07 00:28N 59°52' E 010°39'0 0.0
2016-Dec-06 23:31N 59°52' E 010°39'0 0.0
2016-Dec-06 22:31N 59°52' E 010°39'0 0.0
2016-Dec-06 21:28N 59°52' E 010°39'0 0.0
2016-Dec-06 20:31N 59°52' E 010°39'0 0.0
2016-Dec-06 18:31N 59°52' E 010°39'0 0.0
2016-Dec-06 17:28N 59°52' E 010°39'0 0.2
2016-Dec-06 16:33N 59°52' E 010°40'0 0.1
2016-Dec-06 15:33N 59°52' E 010°40'0 0.1
2016-Dec-06 14:33N 59°52' E 010°40'1 0.3
2016-Dec-06 11:08N 59°53' E 010°41'0 0.2
2016-Dec-06 10:07N 59°53' E 010°41'0 0.2
2016-Dec-06 09:08N 59°53' E 010°41'0 0.2
2016-Dec-06 07:26N 59°53' E 010°40'0 0.2
2016-Dec-06 06:28N 59°53' E 010°41'1 0.1
2016-Dec-05 18:12N 59°54' E 010°42'0 0.2
2016-Dec-05 17:11N 59°54' E 010°41'0 0.0
2016-Dec-05 16:11N 59°54' E 010°41'0 0.5
2016-Dec-05 15:08N 59°53' E 010°41'0 0.5
2016-Dec-05 14:10N 59°54' E 010°41'0 0.1
2016-Dec-05 13:11N 59°54' E 010°41'0 0.4
2016-Dec-05 12:08N 59°53' E 010°41'0 0.1
2016-Dec-05 08:11N 59°54' E 010°42'0 0.2
2016-Dec-05 07:11N 59°54' E 010°41'0 0.2
2016-Dec-05 06:10N 59°53' E 010°41'0 0.4
2016-Dec-05 05:12N 59°54' E 010°42'2 2.7
2016-Dec-05 04:33N 59°52' E 010°39'0 0.0
2016-Dec-05 03:33N 59°52' E 010°39'0 0.0
2016-Dec-05 02:33N 59°52' E 010°39'0 0.0
2016-Dec-05 01:33N 59°52' E 010°39'0 0.0
2016-Dec-05 00:33N 59°52' E 010°39'1 1.0
2016-Dec-04 23:09N 59°53' E 010°41'0 0.1
2016-Dec-04 22:09N 59°53' E 010°41'0 0.0
2016-Dec-04 21:09N 59°53' E 010°41'0 0.1
2016-Dec-04 20:09N 59°53' E 010°41'0 0.5
2016-Dec-04 19:12N 59°54' E 010°41'0 0.4
2016-Dec-04 18:09N 59°53' E 010°41'2 2.1
2016-Dec-04 17:19N 59°54' E 010°44'1 1.2
2016-Dec-04 16:12N 59°54' E 010°41'0 0.0
2016-Dec-04 03:14N 59°53' E 010°41'0 0.3
2016-Dec-04 02:11N 59°54' E 010°41'1 0.5
2016-Dec-04 01:07N 59°53' E 010°40'0 0.3
2016-Dec-04 00:09N 59°53' E 010°41'0 0.3
2016-Dec-03 23:10N 59°54' E 010°41'0 0.2
2016-Dec-03 22:09N 59°53' E 010°41'0 0.2
2016-Dec-03 21:11N 59°54' E 010°41'0 0.1
2016-Dec-03 20:11N 59°54' E 010°41'1 0.9
2016-Dec-03 19:05N 59°53' E 010°40'2 2.8
2016-Dec-03 18:19N 59°54' E 010°44'1 1.2
2016-Dec-03 17:12N 59°54' E 010°41'2 0.1
2016-Dec-03 04:32N 59°55' E 010°44'2 2.1
2016-Dec-03 03:32N 59°53' E 010°41'2 2.1
2016-Dec-03 02:33N 59°55' E 010°44'0 0.0
2016-Dec-03 01:33N 59°55' E 010°44'0 0.0
2016-Dec-03 00:32N 59°55' E 010°44'0 0.0
2016-Dec-02 23:31N 59°55' E 010°44'0 0.0
2016-Dec-02 22:33N 59°55' E 010°44'0 0.2
2016-Dec-02 21:32N 59°54' E 010°44'0 0.2
2016-Dec-02 20:28N 59°55' E 010°44'2 2.2
2016-Dec-02 19:33N 59°53' E 010°41'1 0.6
2016-Dec-02 18:33N 59°53' E 010°40'0 0.3
2016-Dec-02 17:33N 59°53' E 010°40'0 0.0
2016-Dec-02 16:33N 59°53' E 010°40'1 1.3
2016-Dec-02 15:31N 59°54' E 010°41'2 1.7
2016-Dec-02 14:32N 59°52' E 010°39'3 3.2
2016-Dec-02 13:33N 59°55' E 010°44'2 2.0
2016-Dec-02 12:33N 59°53' E 010°41'2 1.9
2016-Dec-02 11:30N 59°55' E 010°44'0 0.0
2016-Dec-02 10:33N 59°55' E 010°44'2 1.7
2016-Dec-02 09:33N 59°54' E 010°41'2 1.5
2016-Dec-02 08:32N 59°52' E 010°39'0 0.1
2016-Dec-02 07:33N 59°52' E 010°40'0 0.1
2016-Dec-02 06:33N 59°52' E 010°40'0 0.2
2016-Dec-02 05:33N 59°53' E 010°40'0 0.0
2016-Dec-02 04:33N 59°53' E 010°40'2 2.3
2016-Dec-02 03:32N 59°54' E 010°43'3 1.3
2016-Dec-02 01:33N 59°52' E 010°39'0 0.0
2016-Dec-02 00:33N 59°52' E 010°39'0 0.0
2016-Dec-01 23:30N 59°52' E 010°39'0 0.0
2016-Dec-01 22:33N 59°52' E 010°39'0 0.0
2016-Dec-01 21:18N 59°52' E 010°39'0 0.0
2016-Dec-01 20:33N 59°52' E 010°39'0 0.0
2016-Dec-01 19:33N 59°52' E 010°39'0 0.0
2016-Dec-01 18:33N 59°52' E 010°39'0 0.4
2016-Dec-01 17:33N 59°53' E 010°40'0 0.1
2016-Dec-01 16:33N 59°53' E 010°40'0 0.3
2016-Dec-01 15:32N 59°52' E 010°39'0 0.0
2016-Dec-01 14:32N 59°52' E 010°39'0 0.0
2016-Dec-01 13:33N 59°52' E 010°39'0 0.0
2016-Dec-01 12:30N 59°52' E 010°39'0 0.0
2016-Dec-01 11:31N 59°52' E 010°39'0 0.0
2016-Dec-01 10:33N 59°52' E 010°39'0 0.0
2016-Dec-01 09:32N 59°52' E 010°39'0 0.0
2016-Dec-01 08:33N 59°52' E 010°39'0 0.1
2016-Dec-01 07:33N 59°52' E 010°40'0 0.0
2016-Dec-01 06:33N 59°52' E 010°40'0 0.2
2016-Dec-01 05:33N 59°53' E 010°40'0 0.0
2016-Dec-01 04:33N 59°53' E 010°40'0 0.0
2016-Dec-01 03:33N 59°53' E 010°40'2 1.6
2016-Dec-01 02:33N 59°54' E 010°42'1 1.2
2016-Dec-01 01:33N 59°54' E 010°44'0 0.2
2016-Dec-01 00:33N 59°55' E 010°44'0 0.0
2016-Nov-30 23:33N 59°55' E 010°44'0 0.0
2016-Nov-30 22:32N 59°55' E 010°44'0 0.0
2016-Nov-30 21:32N 59°55' E 010°44'0 0.0
2016-Nov-30 20:30N 59°55' E 010°44'3 1.6
2016-Nov-30 18:32N 59°52' E 010°39'0 0.4
2016-Nov-30 17:33N 59°53' E 010°40'0 0.1
2016-Nov-30 16:34N 59°53' E 010°40'1 1.1
2016-Nov-30 15:30N 59°54' E 010°41'2 1.6
2016-Nov-30 14:33N 59°52' E 010°39'3 3.2
2016-Nov-30 13:33N 59°55' E 010°44'0 0.0
2016-Nov-30 12:33N 59°55' E 010°44'3 3.0
2016-Nov-30 11:32N 59°52' E 010°40'3 3.1
2016-Nov-30 10:33N 59°55' E 010°44'3 2.7
2016-Nov-30 09:33N 59°53' E 010°40'3 2.7
2016-Nov-30 08:33N 59°55' E 010°44'3 3.1
2016-Nov-30 07:33N 59°52' E 010°40'0 0.0
2016-Nov-30 06:33N 59°52' E 010°40'0 0.2
2016-Nov-30 05:34N 59°53' E 010°40'0 0.0
2016-Nov-30 04:33N 59°53' E 010°40'3 2.8
2016-Nov-30 03:31N 59°55' E 010°44'0 0.0
2016-Nov-30 02:33N 59°55' E 010°44'0 0.0
2016-Nov-30 01:23N 59°55' E 010°44'0 0.0
2016-Nov-30 00:32N 59°55' E 010°44'0 0.0
2016-Nov-29 23:32N 59°55' E 010°44'0 0.0
2016-Nov-29 22:31N 59°55' E 010°44'0 0.0
2016-Nov-29 21:33N 59°55' E 010°44'0 0.0
2016-Nov-29 20:33N 59°55' E 010°44'0 0.0
2016-Nov-29 19:32N 59°55' E 010°44'3 3.2
2016-Nov-29 18:32N 59°52' E 010°39'0 0.4
2016-Nov-29 17:33N 59°53' E 010°40'0 0.1
2016-Nov-29 16:33N 59°53' E 010°40'1 1.1
2016-Nov-29 15:31N 59°54' E 010°41'2 1.8
2016-Nov-29 14:33N 59°55' E 010°44'0 0.0
2016-Nov-29 13:33N 59°55' E 010°44'0 0.0
2016-Nov-29 12:33N 59°55' E 010°44'0 0.0
2016-Nov-29 11:33N 59°55' E 010°44'0 0.0
2016-Nov-29 10:33N 59°55' E 010°44'0 0.0
2016-Nov-29 09:33N 59°55' E 010°44'0 0.0
2016-Nov-29 08:31N 59°55' E 010°44'3 3.3
2016-Nov-29 07:33N 59°52' E 010°40'0 0.0
2016-Nov-29 06:33N 59°52' E 010°40'0 0.3
2016-Nov-29 05:33N 59°53' E 010°40'0 0.0
2016-Nov-29 04:33N 59°53' E 010°40'3 2.7
2016-Nov-29 03:30N 59°55' E 010°44'0 0.0
2016-Nov-29 02:30N 59°55' E 010°44'0 0.0
2016-Nov-29 01:31N 59°55' E 010°44'0 0.0
2016-Nov-29 00:33N 59°55' E 010°44'0 0.0
2016-Nov-28 23:33N 59°55' E 010°44'0 0.0
2016-Nov-28 22:33N 59°55' E 010°44'0 0.0
2016-Nov-28 21:32N 59°55' E 010°44'0 0.0
2016-Nov-28 20:33N 59°55' E 010°44'  

Dump ship's entire track history